Terminal Aerodrome Forecast
Issued by NWS

Home | Current Version | Previous Version | Text Only | Print | Product List | Glossary On
Versions: 1 2 3 4 5 6 7 8 9 10 11 12 13 14 15 16
000
FTUS41 KGYX 262333
TAFHIE
TAF
KHIE 262333Z 2700/2724 VRB03KT P6SM SCT120 OVC200
     FM270500 06007KT P6SM SCT060 BKN100
     FM270800 05012G18KT P6SM BKN060 OVC090
     FM271300 04015G25KT 2SM -SN BKN025 OVC040
     FM271500 04017G27KT 1/2SM SN FZFG OVC012=

USA.gov is the U.S. government's official web portal to all federal, state and local government web resources and services.